Folsom, West Virginia
Current Conditions -  °F | °C
As of 9:53 AM on Friday 19 Dec 2014 (Local Time) from KCKB Reporting Station
Overcast Overcast  
Wind Chill: 28°   Ceiling: 2100
Heat Index: 28°   Visibility: 9mi
Dew Point: 23°   Wind: 3mph
Humidity: 81%   Direction: 250°WSW
Pressure: 30.24"   Gusts: NA
Location:  39.47°N, 80.52°W
Report Text: KCKB 191453Z 25003KT 9SM OVC021 M02/M05 A3024 RMK AO2 SLP249 T10221050 51012
Loading
Personal Weather Stations






























Interactive Weather Map New forecast layout! Learn more

10-Day Weather Forecast

Advertisements
Track Severe Weather on mobile